createdAt,value
2023-04-18T00:00:36.896Z,97304.59
2023-04-18T00:03:05.006Z,97298.81
2023-04-18T00:05:32.146Z,97293.91
2023-04-18T00:07:59.151Z,97298.44
2023-04-18T00:10:26.397Z,97299.84
2023-04-18T00:12:53.440Z,97300.31
2023-04-18T00:15:20.486Z,97303.88
2023-04-18T00:17:48.419Z,97306.44
2023-04-18T00:20:15.478Z,97296.59
2023-04-18T00:22:42.744Z,97293.53
2023-04-18T00:25:10.575Z,97295.06
2023-04-18T00:27:38.466Z,97295.56
2023-04-18T00:30:06.856Z,97291.19
2023-04-18T00:32:37.627Z,97288.16
2023-04-18T00:35:05.006Z,97292.13
2023-04-18T00:37:32.669Z,97293.72
2023-04-18T00:39:59.589Z,97291.03
2023-04-18T00:42:28.957Z,97293.16
2023-04-18T00:44:56.049Z,97283.47
2023-04-18T00:47:23.178Z,97290.56
2023-04-18T00:49:50.239Z,97288.59
2023-04-18T00:52:17.423Z,97289.16
2023-04-18T00:54:44.376Z,97298.31
2023-04-18T00:57:12.126Z,97294.16
2023-04-18T00:59:39.257Z,97293.19
2023-04-18T01:02:08.053Z,97292.47
2023-04-18T01:04:35.177Z,97299.53
2023-04-18T01:07:02.521Z,97294.19
2023-04-18T01:09:29.739Z,97285.31
2023-04-18T01:11:56.882Z,97285.50
2023-04-18T01:14:24.133Z,97284.81
2023-04-18T01:16:51.100Z,97285.19
2023-04-18T01:19:19.330Z,97296.38
2023-04-18T01:21:46.377Z,97294.22
2023-04-18T01:24:15.532Z,97292.38
2023-04-18T01:26:44.200Z,97299.06
2023-04-18T01:29:11.582Z,97297.91
2023-04-18T01:31:38.906Z,97291.19
2023-04-18T01:34:07.509Z,97292.44
2023-04-18T01:36:35.172Z,97293.38
2023-04-18T01:39:02.856Z,97281.75
2023-04-18T01:41:32.569Z,97292.56
2023-04-18T01:44:00.059Z,97286.13
2023-04-18T01:46:27.503Z,97288.66
2023-04-18T01:48:54.607Z,97289.66
2023-04-18T01:51:21.729Z,97289.31
2023-04-18T01:53:48.778Z,97283.50
2023-04-18T01:56:15.839Z,97291.56
2023-04-18T01:58:42.794Z,97283.69
2023-04-18T02:01:09.816Z,97275.50
2023-04-18T02:03:37.208Z,97279.22
2023-04-18T02:06:04.775Z,97273.06
2023-04-18T02:08:33.160Z,97277.16
2023-04-18T02:11:01.426Z,97277.56
2023-04-18T02:13:28.906Z,97286.00
2023-04-18T02:15:57.723Z,97286.28
2023-04-18T02:18:25.603Z,97278.34
2023-04-18T02:20:52.749Z,97272.13
2023-04-18T02:23:21.994Z,97278.50
2023-04-18T02:25:49.049Z,97277.50
2023-04-18T02:28:17.773Z,97274.78
2023-04-18T02:30:44.797Z,97274.50
2023-04-18T02:33:11.819Z,97272.81
2023-04-18T02:35:38.970Z,97282.38
2023-04-18T02:38:06.580Z,97274.59
2023-04-18T02:40:33.611Z,97278.56
2023-04-18T02:43:01.609Z,97276.94
2023-04-18T02:45:29.259Z,97273.94
2023-04-18T02:47:58.717Z,97274.31
2023-04-18T02:50:25.799Z,97274.00
2023-04-18T02:52:54.985Z,97280.22
2023-04-18T02:55:26.926Z,97275.19
2023-04-18T02:57:57.567Z,97271.56
2023-04-18T03:00:44.871Z,97278.16
2023-04-18T03:03:25.223Z,97272.47
2023-04-18T03:06:12.206Z,97282.31
2023-04-18T03:08:39.477Z,97279.56
2023-04-18T03:11:07.768Z,97282.22
2023-04-18T03:13:35.307Z,97279.03
2023-04-18T03:16:02.676Z,97284.53
2023-04-18T03:18:30.515Z,97287.41
2023-04-18T03:20:59.308Z,97283.75
2023-04-18T03:23:27.991Z,97279.38
2023-04-18T03:25:54.949Z,97275.22
2023-04-18T03:28:22.822Z,97273.19
2023-04-18T03:30:50.867Z,97283.56
2023-04-18T03:33:18.285Z,97277.06
2023-04-18T03:35:47.130Z,97276.25
2023-04-18T03:38:14.275Z,97280.72
2023-04-18T03:40:43.185Z,97275.22
2023-04-18T03:43:19.276Z,97272.41
2023-04-18T03:45:47.520Z,97279.34
2023-04-18T03:48:16.735Z,97280.28
2023-04-18T03:50:45.517Z,97280.09
2023-04-18T03:53:12.619Z,97270.28
2023-04-18T03:55:41.433Z,97280.72
2023-04-18T03:58:09.476Z,97279.03
2023-04-18T04:00:36.618Z,97276.00
2023-04-18T04:03:09.766Z,97276.69
2023-04-18T04:05:36.966Z,97280.53
2023-04-18T04:08:04.967Z,97279.16
2023-04-18T04:10:31.923Z,97281.94
2023-04-18T04:12:58.960Z,97285.25
2023-04-18T04:15:26.517Z,97288.06
2023-04-18T04:18:00.732Z,97289.69
2023-04-18T04:20:28.080Z,97287.09
2023-04-18T04:23:02.849Z,97289.22
2023-04-18T04:25:33.912Z,97293.13
2023-04-18T04:28:06.819Z,97284.91
2023-04-18T04:30:41.744Z,97289.00
2023-04-18T04:33:09.189Z,97297.28
2023-04-18T04:35:36.843Z,97296.66
2023-04-18T04:38:04.849Z,97296.44
2023-04-18T04:40:42.958Z,97306.38
2023-04-18T04:43:15.733Z,97301.41
2023-04-18T04:45:45.331Z,97304.03
2023-04-18T04:48:12.482Z,97301.69
2023-04-18T04:50:40.553Z,97310.59
2023-04-18T04:53:08.261Z,97310.78
2023-04-18T04:55:35.378Z,97309.41
2023-04-18T04:58:04.348Z,97301.06
2023-04-18T05:00:42.573Z,97303.72
2023-04-18T05:03:10.340Z,97305.56
2023-04-18T05:05:37.727Z,97304.97
2023-04-18T05:08:05.036Z,97306.19
2023-04-18T05:10:32.612Z,97317.75
2023-04-18T05:12:59.750Z,97318.91
2023-04-18T05:15:26.734Z,97318.59
2023-04-18T05:17:53.838Z,97321.94
2023-04-18T05:20:20.890Z,97314.91
2023-04-18T05:22:47.867Z,97327.13
2023-04-18T05:25:14.815Z,97338.53
2023-04-18T05:27:43.238Z,97324.59
2023-04-18T05:30:10.590Z,97327.91
2023-04-18T05:32:39.125Z,97321.03
2023-04-18T05:35:07.170Z,97320.66
2023-04-18T05:37:34.266Z,97333.16
2023-04-18T05:40:01.339Z,97329.31
2023-04-18T05:42:28.610Z,97326.97
2023-04-18T05:44:55.791Z,97328.72
2023-04-18T05:47:24.232Z,97327.56
2023-04-18T05:49:51.549Z,97331.13
2023-04-18T05:52:18.525Z,97338.19
2023-04-18T05:54:45.873Z,97330.81
2023-04-18T05:57:12.816Z,97330.91
2023-04-18T05:59:39.833Z,97336.69
2023-04-18T06:02:13.247Z,97330.47
2023-04-18T06:04:41.988Z,97336.06
2023-04-18T06:07:09.391Z,97348.28
2023-04-18T06:09:36.423Z,97346.25
2023-04-18T06:12:04.000Z,97348.88
2023-04-18T06:14:31.712Z,97348.25
2023-04-18T06:16:58.911Z,97350.25
2023-04-18T06:19:25.929Z,97354.84
2023-04-18T06:21:52.939Z,97356.63
2023-04-18T06:24:20.000Z,97353.38
2023-04-18T06:26:47.444Z,97351.19
2023-04-18T06:29:14.730Z,97360.31
2023-04-18T06:31:42.255Z,97353.59
2023-04-18T06:34:09.508Z,97364.53
2023-04-18T06:36:36.455Z,97357.88
2023-04-18T06:39:03.895Z,97358.34
2023-04-18T06:41:31.452Z,97364.72
2023-04-18T06:46:28.436Z,97357.75
2023-04-18T06:48:55.543Z,97368.69
2023-04-18T06:51:22.530Z,97372.28
2023-04-18T06:53:52.772Z,97369.50
2023-04-18T06:56:22.828Z,97369.22
2023-04-18T06:58:49.881Z,97363.88
2023-04-18T07:01:16.950Z,97359.78
2023-04-18T07:03:44.193Z,97370.56
2023-04-18T07:06:11.405Z,97361.44
2023-04-18T07:08:38.562Z,97367.94
2023-04-18T07:11:06.479Z,97370.09
2023-04-18T07:13:33.551Z,97374.28
2023-04-18T07:16:01.541Z,97377.47
2023-04-18T07:18:37.518Z,97372.94
2023-04-18T07:21:07.670Z,97376.41
2023-04-18T07:23:35.593Z,97366.56
2023-04-18T07:26:03.185Z,97359.81
2023-04-18T07:28:31.036Z,97373.44
2023-04-18T07:30:58.400Z,97363.09
2023-04-18T07:33:25.884Z,97371.75
2023-04-18T07:35:53.236Z,97365.84
2023-04-18T07:38:20.671Z,97361.88
2023-04-18T07:40:47.656Z,97361.66
2023-04-18T07:43:15.157Z,97358.34
2023-04-18T07:45:43.496Z,97363.94
2023-04-18T07:48:11.493Z,97369.56
2023-04-18T07:50:38.597Z,97370.84
2023-04-18T07:53:06.298Z,97363.97
2023-04-18T07:55:33.289Z,97359.97
2023-04-18T07:58:00.278Z,97373.19
2023-04-18T08:00:28.964Z,97363.06
2023-04-18T08:02:56.604Z,97364.56
2023-04-18T08:05:23.814Z,97369.69
2023-04-18T08:07:51.027Z,97369.75
2023-04-18T08:10:18.470Z,97369.13
2023-04-18T08:12:45.737Z,97376.59
2023-04-18T08:15:13.181Z,97370.31
2023-04-18T08:17:42.916Z,97370.84
2023-04-18T08:20:10.505Z,97371.03
2023-04-18T08:22:46.768Z,97367.31
2023-04-18T08:25:17.794Z,97382.81
2023-04-18T08:27:44.908Z,97365.91
2023-04-18T08:30:12.549Z,97371.34
2023-04-18T08:32:40.132Z,97378.19
2023-04-18T08:35:07.689Z,97373.69
2023-04-18T08:37:37.587Z,97380.13
2023-04-18T08:40:07.282Z,97382.03
2023-04-18T08:42:34.362Z,97383.72
2023-04-18T08:45:01.699Z,97383.94
2023-04-18T08:47:29.996Z,97391.03
2023-04-18T08:49:57.556Z,97382.81
2023-04-18T08:52:24.667Z,97397.09
2023-04-18T08:54:52.167Z,97399.88
2023-04-18T08:57:27.152Z,97401.22
2023-04-18T08:59:54.673Z,97405.03
2023-04-18T09:02:23.508Z,97406.63
2023-04-18T09:04:53.605Z,97408.00
2023-04-18T09:07:30.727Z,97412.69
2023-04-18T09:09:57.977Z,97410.41
2023-04-18T09:12:26.670Z,97412.00
2023-04-18T09:15:09.976Z,97413.03
2023-04-18T09:17:51.099Z,97421.09
2023-04-18T09:20:34.617Z,97422.94
2023-04-18T09:23:03.891Z,97420.50
2023-04-18T09:25:54.561Z,97419.91
2023-04-18T09:28:32.056Z,97411.78
2023-04-18T09:31:07.985Z,97409.75
2023-04-18T09:33:37.116Z,97406.00
2023-04-18T09:36:20.634Z,97404.13
2023-04-18T09:38:48.617Z,97412.56
2023-04-18T09:41:19.921Z,97410.38
2023-04-18T09:43:48.570Z,97396.47
2023-04-18T09:46:17.658Z,97402.16
2023-04-18T09:48:45.606Z,97396.69
2023-04-18T09:51:15.089Z,97401.56
2023-04-18T09:53:44.737Z,97396.66
2023-04-18T09:56:27.913Z,97393.66
2023-04-18T09:59:08.574Z,97397.13
2023-04-18T10:01:36.180Z,97395.06
2023-04-18T10:04:04.527Z,97399.63
2023-04-18T10:06:33.455Z,97401.59
2023-04-18T10:09:01.306Z,97390.22
2023-04-18T10:11:29.382Z,97396.34
2023-04-18T10:13:57.097Z,97394.44
2023-04-18T10:16:24.111Z,97401.66
2023-04-18T10:18:51.726Z,97400.00
2023-04-18T10:21:18.685Z,97398.69
2023-04-18T10:23:48.954Z,97398.59
2023-04-18T10:26:16.172Z,97397.66
2023-04-18T10:28:58.766Z,97397.72
2023-04-18T10:31:26.962Z,97395.97
2023-04-18T10:36:28.541Z,97389.47
2023-04-18T10:39:00.505Z,97399.22
2023-04-18T10:41:28.236Z,97394.69
2023-04-18T10:44:11.406Z,97388.00
2023-04-18T10:46:50.829Z,97390.84
2023-04-18T10:49:27.527Z,97398.94
2023-04-18T10:52:01.842Z,97384.53
2023-04-18T10:54:51.256Z,97382.25
2023-04-18T10:57:18.206Z,97391.91
2023-04-18T10:59:50.838Z,97372.06
2023-04-18T11:02:30.869Z,97384.44
2023-04-18T11:04:58.409Z,97367.53
2023-04-18T11:07:39.512Z,97372.22
2023-04-18T11:10:07.968Z,97370.19
2023-04-18T11:12:38.808Z,97367.06
2023-04-18T11:15:32.356Z,97369.44
2023-04-18T11:18:03.499Z,97362.94
2023-04-18T11:20:39.185Z,97360.56
2023-04-18T11:23:20.180Z,97356.81
2023-04-18T11:25:49.509Z,97356.94
2023-04-18T11:28:22.026Z,97359.94
2023-04-18T11:30:49.763Z,97355.56
2023-04-18T11:33:17.329Z,97354.56
2023-04-18T11:35:45.361Z,97345.31
2023-04-18T11:38:13.635Z,97364.94
2023-04-18T11:40:47.690Z,97358.53
2023-04-18T11:43:22.387Z,97356.03
2023-04-18T11:45:56.490Z,97355.84
2023-04-18T11:48:24.095Z,97359.44
2023-04-18T11:50:51.179Z,97360.28
2023-04-18T11:53:34.648Z,97357.94
2023-04-18T11:56:03.843Z,97362.59
2023-04-18T11:58:33.046Z,97352.97
2023-04-18T12:01:02.112Z,97353.94
2023-04-18T12:03:29.793Z,97364.78
2023-04-18T12:06:01.392Z,97363.44
2023-04-18T12:08:28.508Z,97350.75
2023-04-18T12:10:55.847Z,97369.34
2023-04-18T12:13:26.952Z,97356.22
2023-04-18T12:15:54.642Z,97351.66
2023-04-18T12:18:21.738Z,97361.28
2023-04-18T12:20:54.338Z,97358.19
2023-04-18T12:23:40.547Z,97363.13
2023-04-18T12:26:11.053Z,97369.22
2023-04-18T12:28:38.087Z,97364.66
2023-04-18T12:31:08.254Z,97366.03
2023-04-18T12:33:38.136Z,97356.88
2023-04-18T12:36:06.119Z,97359.69
2023-04-18T12:38:33.160Z,97358.78
2023-04-18T12:41:00.169Z,97367.94
2023-04-18T12:43:27.207Z,97367.84
2023-04-18T12:45:54.140Z,97372.06
2023-04-18T12:48:21.392Z,97363.31
2023-04-18T12:50:48.370Z,97377.22
2023-04-18T12:53:15.378Z,97371.28
2023-04-18T12:55:42.407Z,97369.25
2023-04-18T12:58:09.406Z,97372.19
2023-04-18T13:00:36.424Z,97378.59
2023-04-18T13:03:03.594Z,97379.16
2023-04-18T13:05:33.431Z,97370.00
2023-04-18T13:10:31.019Z,97359.00
2023-04-18T13:12:57.982Z,97364.09
2023-04-18T13:15:25.771Z,97363.81
2023-04-18T13:17:52.908Z,97361.56
2023-04-18T13:20:19.904Z,97363.31
2023-04-18T13:22:46.946Z,97370.88
2023-04-18T13:25:14.007Z,97368.03
2023-04-18T13:27:41.886Z,97370.59
2023-04-18T13:30:10.833Z,97372.06
2023-04-18T13:32:39.247Z,97369.25
2023-04-18T13:35:09.122Z,97362.31
2023-04-18T13:37:36.931Z,97371.88
2023-04-18T13:40:06.601Z,97369.66
2023-04-18T13:42:34.116Z,97364.38
2023-04-18T13:45:01.168Z,97372.16
2023-04-18T13:47:28.418Z,97378.78
2023-04-18T13:49:56.205Z,97374.53
2023-04-18T13:52:23.282Z,97375.16
2023-04-18T13:54:50.292Z,97377.25
2023-04-18T13:57:17.224Z,97372.50
2023-04-18T13:59:44.386Z,97377.53
2023-04-18T14:02:11.571Z,97374.47
2023-04-18T14:04:39.023Z,97378.63
2023-04-18T14:07:09.267Z,97375.22
2023-04-18T14:09:36.718Z,97382.09
2023-04-18T14:12:03.862Z,97368.81
2023-04-18T14:14:31.008Z,97378.22
2023-04-18T14:16:57.970Z,97382.38
2023-04-18T14:19:25.165Z,97382.81
2023-04-18T14:21:52.296Z,97381.19
2023-04-18T14:24:19.291Z,97387.28
2023-04-18T14:26:46.388Z,97388.25
2023-04-18T14:29:14.438Z,97380.88
2023-04-18T14:31:41.846Z,97381.94
2023-04-18T14:34:09.847Z,97385.19
2023-04-18T14:36:37.108Z,97381.19
2023-04-18T14:39:04.728Z,97381.69
2023-04-18T14:41:31.795Z,97382.03
2023-04-18T14:43:59.270Z,97381.72
2023-04-18T14:46:28.411Z,97384.28
2023-04-18T14:48:55.560Z,97375.59
2023-04-18T14:51:23.258Z,97385.06
2023-04-18T14:53:50.236Z,97376.66
2023-04-18T14:56:21.033Z,97383.97
2023-04-18T14:58:48.082Z,97384.00
2023-04-18T15:01:15.466Z,97385.28
2023-04-18T15:03:42.504Z,97377.31
2023-04-18T15:06:09.622Z,97386.31
2023-04-18T15:08:36.705Z,97388.31
2023-04-18T15:11:07.592Z,97383.34
2023-04-18T15:13:34.472Z,97386.31
2023-04-18T15:16:01.689Z,97395.16
2023-04-18T15:18:28.901Z,97389.81
2023-04-18T15:20:57.098Z,97389.16
2023-04-18T15:23:24.191Z,97393.84
2023-04-18T15:25:51.117Z,97395.88
2023-04-18T15:28:18.943Z,97399.00
2023-04-18T15:30:46.398Z,97392.13
2023-04-18T15:33:13.732Z,97390.28
2023-04-18T15:35:40.962Z,97387.28
2023-04-18T15:38:07.958Z,97398.31
2023-04-18T15:40:36.352Z,97401.88
2023-04-18T15:43:04.122Z,97393.19
2023-04-18T15:45:31.338Z,97397.81
2023-04-18T15:47:58.793Z,97389.31
2023-04-18T15:50:26.085Z,97390.84
2023-04-18T15:52:53.101Z,97390.84
2023-04-18T15:55:20.105Z,97401.88
2023-04-18T15:57:47.107Z,97400.91
2023-04-18T16:00:17.449Z,97402.25
2023-04-18T16:02:44.980Z,97415.50
2023-04-18T16:05:15.477Z,97412.34
2023-04-18T16:07:42.947Z,97411.22
2023-04-18T16:10:10.899Z,97411.88
2023-04-18T16:12:39.086Z,97417.56
2023-04-18T16:15:07.256Z,97414.25
2023-04-18T16:17:34.574Z,97416.97
2023-04-18T16:20:01.866Z,97413.53
2023-04-18T16:22:28.898Z,97418.22
2023-04-18T16:24:55.873Z,97410.81
2023-04-18T16:27:22.886Z,97421.50
2023-04-18T16:29:49.862Z,97415.78
2023-04-18T16:32:16.849Z,97421.69
2023-04-18T16:34:43.776Z,97418.28
2023-04-18T16:37:11.289Z,97418.88
2023-04-18T16:39:38.270Z,97420.81
2023-04-18T16:42:05.841Z,97413.88
2023-04-18T16:44:33.343Z,97416.41
2023-04-18T16:47:00.474Z,97425.78
2023-04-18T16:49:28.608Z,97421.09
2023-04-18T16:51:55.846Z,97424.84
2023-04-18T16:54:22.888Z,97418.28
2023-04-18T16:56:49.988Z,97420.13
2023-04-18T16:59:17.053Z,97423.09
2023-04-18T17:01:44.232Z,97419.00
2023-04-18T17:04:11.343Z,97427.16
2023-04-18T17:06:38.415Z,97427.09
2023-04-18T17:09:06.409Z,97436.38
2023-04-18T17:11:39.796Z,97435.97
2023-04-18T17:14:08.164Z,97443.88
2023-04-18T17:16:37.760Z,97440.91
2023-04-18T17:19:05.362Z,97439.59
2023-04-18T17:21:33.063Z,97443.78
2023-04-18T17:24:03.552Z,97449.06
2023-04-18T17:26:31.008Z,97450.66
2023-04-18T17:28:58.045Z,97441.53
2023-04-18T17:31:25.147Z,97453.25
2023-04-18T17:33:53.388Z,97457.13
2023-04-18T17:36:20.681Z,97452.34
2023-04-18T17:38:50.468Z,97448.22
2023-04-18T17:41:18.525Z,97444.13
2023-04-18T17:43:46.025Z,97454.22
2023-04-18T17:46:13.668Z,97461.69
2023-04-18T17:48:41.308Z,97460.75
2023-04-18T17:51:08.407Z,97462.06
2023-04-18T17:53:35.436Z,97472.72
2023-04-18T17:56:03.827Z,97467.06
2023-04-18T17:58:31.278Z,97467.22
2023-04-18T18:00:58.485Z,97467.41
2023-04-18T18:03:25.729Z,97468.56
2023-04-18T18:05:54.925Z,97478.16
2023-04-18T18:08:22.786Z,97477.66
2023-04-18T18:10:50.120Z,97470.13
2023-04-18T18:13:17.283Z,97480.66
2023-04-18T18:15:44.290Z,97480.66
2023-04-18T18:18:11.555Z,97478.00
2023-04-18T18:20:40.944Z,97479.13
2023-04-18T18:23:08.959Z,97493.72
2023-04-18T18:25:37.726Z,97492.50
2023-04-18T18:28:04.911Z,97499.09
2023-04-18T18:30:32.142Z,97490.78
2023-04-18T18:32:59.483Z,97497.72
2023-04-18T18:35:26.711Z,97502.72
2023-04-18T18:37:54.022Z,97503.88
2023-04-18T18:40:21.367Z,97509.03
2023-04-18T18:42:53.842Z,97516.88
2023-04-18T18:45:21.500Z,97518.25
2023-04-18T18:47:49.324Z,97515.88
2023-04-18T18:50:16.630Z,97518.84
2023-04-18T18:52:44.827Z,97526.66
2023-04-18T18:55:12.156Z,97527.25
2023-04-18T18:57:39.656Z,97516.22
2023-04-18T19:00:11.184Z,97518.63
2023-04-18T19:02:39.346Z,97522.72
2023-04-18T19:05:09.045Z,97521.44
2023-04-18T19:07:36.360Z,97523.84
2023-04-18T19:10:04.726Z,97522.56
2023-04-18T19:12:32.489Z,97521.81
2023-04-18T19:15:00.690Z,97526.63
2023-04-18T19:17:28.794Z,97527.75
2023-04-18T19:19:58.240Z,97532.00
2023-04-18T19:22:26.076Z,97524.50
2023-04-18T19:24:53.510Z,97532.47
2023-04-18T19:27:20.786Z,97530.28
2023-04-18T19:29:49.007Z,97528.16
2023-04-18T19:32:16.394Z,97532.41
2023-04-18T19:34:44.057Z,97526.78
2023-04-18T19:37:11.768Z,97530.44
2023-04-18T19:39:38.976Z,97524.16
2023-04-18T19:42:06.425Z,97530.28
2023-04-18T19:44:33.735Z,97527.25
2023-04-18T19:47:01.389Z,97527.09
2023-04-18T19:49:28.650Z,97520.78
2023-04-18T19:51:55.950Z,97517.25
2023-04-18T19:54:23.141Z,97524.50
2023-04-18T19:56:50.448Z,97524.34
2023-04-18T19:59:17.934Z,97523.47
2023-04-18T20:01:45.187Z,97525.25
2023-04-18T20:04:12.489Z,97527.44
2023-04-18T20:06:39.650Z,97526.34
2023-04-18T20:09:08.635Z,97520.81
2023-04-18T20:11:35.716Z,97527.72
2023-04-18T20:14:03.294Z,97521.84
2023-04-18T20:16:30.548Z,97524.81
2023-04-18T20:18:57.610Z,97524.41
2023-04-18T20:21:24.720Z,97524.69
2023-04-18T20:23:51.865Z,97526.59
2023-04-18T20:26:19.441Z,97517.50
2023-04-18T20:28:46.559Z,97519.91
2023-04-18T20:31:13.727Z,97526.19
2023-04-18T20:33:41.345Z,97522.22
2023-04-18T20:36:08.513Z,97526.91
2023-04-18T20:38:37.038Z,97523.06
2023-04-18T20:41:04.294Z,97515.63
2023-04-18T20:43:37.303Z,97524.88
2023-04-18T20:46:04.512Z,97519.03
2023-04-18T20:48:31.561Z,97520.53
2023-04-18T20:50:58.524Z,97517.88
2023-04-18T20:53:27.116Z,97526.38
2023-04-18T20:55:54.309Z,97517.88
2023-04-18T20:58:21.328Z,97517.38
2023-04-18T21:00:49.016Z,97518.38
2023-04-18T21:03:16.432Z,97503.09
2023-04-18T21:05:43.906Z,97511.13
2023-04-18T21:08:13.907Z,97520.81
2023-04-18T21:10:40.964Z,97516.34
2023-04-18T21:13:09.293Z,97512.66
2023-04-18T21:15:36.462Z,97519.66
2023-04-18T21:18:03.636Z,97523.41
2023-04-18T21:20:30.594Z,97520.88
2023-04-18T21:22:57.576Z,97518.81
2023-04-18T21:25:24.548Z,97521.47
2023-04-18T21:27:51.589Z,97524.22
2023-04-18T21:30:18.567Z,97519.69
2023-04-18T21:32:46.091Z,97518.56
2023-04-18T21:35:13.287Z,97519.28
2023-04-18T21:37:40.370Z,97514.91
2023-04-18T21:40:08.069Z,97520.69
2023-04-18T21:42:35.677Z,97520.34
2023-04-18T21:45:02.817Z,97516.16
2023-04-18T21:47:30.202Z,97515.38
2023-04-18T21:49:57.254Z,97515.84
2023-04-18T21:52:24.213Z,97519.75
2023-04-18T21:54:51.389Z,97517.97
2023-04-18T21:57:18.437Z,97522.66
2023-04-18T21:59:45.420Z,97515.50
2023-04-18T22:02:12.634Z,97521.16
2023-04-18T22:04:42.592Z,97517.97
2023-04-18T22:07:10.043Z,97523.16
2023-04-18T22:09:37.173Z,97523.03
2023-04-18T22:12:04.614Z,97516.91
2023-04-18T22:14:32.312Z,97511.25
2023-04-18T22:17:03.293Z,97511.94
2023-04-18T22:19:31.326Z,97513.38
2023-04-18T22:21:58.404Z,97505.25
2023-04-18T22:24:26.053Z,97513.88
2023-04-18T22:26:53.232Z,97505.19
2023-04-18T22:29:20.208Z,97508.06
2023-04-18T22:31:47.366Z,97506.59
2023-04-18T22:34:14.726Z,97508.13
2023-04-18T22:36:42.896Z,97511.09
2023-04-18T22:39:09.970Z,97507.22
2023-04-18T22:41:37.166Z,97504.53
2023-04-18T22:44:04.830Z,97502.78
2023-04-18T22:46:33.079Z,97504.41
2023-04-18T22:49:00.654Z,97513.44
2023-04-18T22:51:28.950Z,97511.22
2023-04-18T22:53:56.392Z,97511.69
2023-04-18T22:56:23.493Z,97510.66
2023-04-18T22:58:50.591Z,97506.88
2023-04-18T23:01:17.683Z,97509.41
2023-04-18T23:03:44.983Z,97510.38
2023-04-18T23:06:12.128Z,97509.41
2023-04-18T23:08:39.088Z,97511.56
2023-04-18T23:11:06.122Z,97514.00
2023-04-18T23:13:33.136Z,97512.47
2023-04-18T23:16:00.318Z,97512.66
2023-04-18T23:18:29.961Z,97512.50
2023-04-18T23:20:56.957Z,97509.50
2023-04-18T23:23:24.111Z,97505.28
2023-04-18T23:25:51.547Z,97504.44
2023-04-18T23:28:18.622Z,97504.88
2023-04-18T23:30:45.734Z,97503.72
2023-04-18T23:33:12.688Z,97506.28
2023-04-18T23:35:39.689Z,97507.22
2023-04-18T23:38:06.684Z,97503.75
2023-04-18T23:40:33.925Z,97497.72
2023-04-18T23:43:01.626Z,97501.75
2023-04-18T23:45:31.416Z,97499.13
2023-04-18T23:47:58.811Z,97495.63
2023-04-18T23:50:25.871Z,97488.44
2023-04-18T23:52:52.846Z,97493.88
2023-04-18T23:55:19.874Z,97485.41
2023-04-18T23:57:46.907Z,97484.84
